createdAt,value
2022-08-27T00:02:07.524Z,64.07
2022-08-27T00:04:36.829Z,47.72
2022-08-27T00:07:05.894Z,53.97
2022-08-27T00:12:19.135Z,94.65
2022-08-27T00:14:46.978Z,95.97
2022-08-27T00:17:16.149Z,78.35
2022-08-27T00:19:44.684Z,66.22
2022-08-27T00:22:12.893Z,92.15
2022-08-27T00:24:48.712Z,109.75
2022-08-27T00:27:18.171Z,92.75
2022-08-27T00:29:47.442Z,88.80
2022-08-27T00:32:16.537Z,80.00
2022-08-27T00:34:44.784Z,102.12
2022-08-27T00:37:12.757Z,102.10
2022-08-27T00:39:40.618Z,109.22
2022-08-27T00:42:10.088Z,111.40
2022-08-27T00:44:46.491Z,106.18
2022-08-27T00:47:20.328Z,84.32
2022-08-27T00:49:56.252Z,83.47
2022-08-27T00:52:40.913Z,101.90
2022-08-27T00:55:22.780Z,119.65
2022-08-27T00:58:03.314Z,104.75
2022-08-27T01:00:34.213Z,107.68
2022-08-27T01:03:02.553Z,116.88
2022-08-27T01:05:30.787Z,123.87
2022-08-27T01:08:06.066Z,120.90
2022-08-27T01:10:34.983Z,105.65
2022-08-27T01:13:03.091Z,99.65
2022-08-27T01:15:31.644Z,100.45
2022-08-27T01:18:01.288Z,106.47
2022-08-27T01:20:36.059Z,113.10
2022-08-27T01:23:25.622Z,70.25
2022-08-27T01:25:53.756Z,61.65
2022-08-27T01:28:23.640Z,67.10
2022-08-27T01:30:57.167Z,75.93
2022-08-27T01:33:25.280Z,101.72
2022-08-27T01:35:53.361Z,174.85
2022-08-27T01:38:30.937Z,128.70
2022-08-27T01:41:01.480Z,135.15
2022-08-27T01:43:31.613Z,135.02
2022-08-27T01:45:59.803Z,144.13
2022-08-27T01:48:30.583Z,143.82
2022-08-27T01:50:58.398Z,187.70
2022-08-27T01:53:27.723Z,167.87
2022-08-27T01:55:55.676Z,153.85
2022-08-27T01:58:27.273Z,129.32
2022-08-27T02:00:59.825Z,114.32
2022-08-27T02:03:28.038Z,100.87
2022-08-27T02:05:56.076Z,139.65
2022-08-27T02:08:24.250Z,121.70
2022-08-27T02:10:52.569Z,118.78
2022-08-27T02:13:20.430Z,139.23
2022-08-27T02:15:48.250Z,116.12
2022-08-27T02:18:16.823Z,153.73
2022-08-27T02:20:48.896Z,147.98
2022-08-27T02:23:18.493Z,97.60
2022-08-27T02:25:49.030Z,106.05
2022-08-27T02:28:17.234Z,119.75
2022-08-27T02:30:45.175Z,142.40
2022-08-27T02:33:13.895Z,116.00
2022-08-27T02:35:44.573Z,124.75
2022-08-27T02:38:14.456Z,132.27
2022-08-27T02:40:42.649Z,117.90
2022-08-27T02:43:15.822Z,165.57
2022-08-27T02:45:44.318Z,119.45
2022-08-27T02:48:12.688Z,143.18
2022-08-27T02:50:40.685Z,146.35
2022-08-27T02:53:09.210Z,134.00
2022-08-27T02:55:37.634Z,176.55
2022-08-27T02:58:05.644Z,175.30
2022-08-27T03:00:34.078Z,158.50
2022-08-27T03:03:03.089Z,142.75
2022-08-27T03:05:31.041Z,148.43
2022-08-27T03:08:00.284Z,117.47
2022-08-27T03:10:28.060Z,154.50
2022-08-27T03:12:57.563Z,165.07
2022-08-27T03:15:26.052Z,134.57
2022-08-27T03:18:12.379Z,172.98
2022-08-27T03:20:42.684Z,119.80
2022-08-27T03:23:11.545Z,147.45
2022-08-27T03:25:39.489Z,102.43
2022-08-27T03:28:22.400Z,153.52
2022-08-27T03:30:54.769Z,148.20
2022-08-27T03:33:23.218Z,104.95
2022-08-27T03:35:52.163Z,149.65
2022-08-27T03:38:20.719Z,148.70
2022-08-27T03:40:49.744Z,109.43
2022-08-27T03:43:19.388Z,69.53
2022-08-27T03:46:00.561Z,99.35
2022-08-27T03:51:05.573Z,134.65
2022-08-27T03:53:33.744Z,123.43
2022-08-27T03:56:01.564Z,90.55
2022-08-27T03:58:29.457Z,77.18
2022-08-27T04:00:57.718Z,89.95
2022-08-27T04:03:25.922Z,79.75
2022-08-27T04:05:57.275Z,83.95
2022-08-27T04:08:26.547Z,68.43
2022-08-27T04:10:55.296Z,87.72
2022-08-27T04:13:24.117Z,87.75
2022-08-27T04:15:54.759Z,101.28
2022-08-27T04:18:22.916Z,75.22
2022-08-27T04:20:52.891Z,74.75
2022-08-27T04:23:21.819Z,93.78
2022-08-27T04:25:49.665Z,122.90
2022-08-27T04:28:18.877Z,126.47
2022-08-27T04:30:47.741Z,112.70
2022-08-27T04:36:04.662Z,128.48
2022-08-27T04:38:33.757Z,104.22
2022-08-27T04:41:22.758Z,156.30
2022-08-27T04:43:56.750Z,97.80
2022-08-27T04:46:29.061Z,146.20
2022-08-27T04:48:59.694Z,181.03
2022-08-27T04:51:29.408Z,140.73
2022-08-27T04:54:01.018Z,181.30
2022-08-27T04:56:35.064Z,182.75
2022-08-27T04:59:05.687Z,216.48
2022-08-27T05:01:33.981Z,153.12
2022-08-27T05:04:15.081Z,168.00
2022-08-27T05:06:45.783Z,205.20
2022-08-27T05:09:14.834Z,240.50
2022-08-27T05:11:44.207Z,182.25
2022-08-27T05:14:16.569Z,224.88
2022-08-27T05:16:44.903Z,225.90
2022-08-27T05:19:15.693Z,175.00
2022-08-27T05:21:51.267Z,117.55
2022-08-27T05:24:20.058Z,238.02
2022-08-27T05:26:48.594Z,176.98
2022-08-27T05:29:17.297Z,211.93
2022-08-27T05:31:48.262Z,234.62
2022-08-27T05:34:18.690Z,221.73
2022-08-27T05:36:53.858Z,227.60
2022-08-27T05:39:21.874Z,212.00
2022-08-27T05:41:49.816Z,166.02
2022-08-27T05:44:40.148Z,218.25
2022-08-27T05:47:06.296Z,177.55
2022-08-27T05:49:34.543Z,165.98
2022-08-27T05:52:02.587Z,162.10
2022-08-27T05:54:30.411Z,197.73
2022-08-27T05:56:58.788Z,152.82
2022-08-27T05:59:45.017Z,170.10
2022-08-27T06:02:13.380Z,178.95
2022-08-27T06:04:41.775Z,176.87
2022-08-27T06:07:11.336Z,159.68
2022-08-27T06:09:40.041Z,148.52
2022-08-27T06:12:10.713Z,180.52
2022-08-27T06:14:39.090Z,178.68
2022-08-27T06:17:07.067Z,136.00
2022-08-27T06:19:36.731Z,171.27
2022-08-27T06:22:09.795Z,179.35
2022-08-27T06:24:42.805Z,160.85
2022-08-27T06:27:14.597Z,149.82
2022-08-27T06:29:43.350Z,137.65
2022-08-27T06:32:12.421Z,131.82
2022-08-27T06:34:40.425Z,152.55
2022-08-27T06:37:08.880Z,123.05
2022-08-27T06:39:40.553Z,112.78
2022-08-27T06:42:12.790Z,125.38
2022-08-27T06:44:41.586Z,135.15
2022-08-27T06:47:10.308Z,131.55
2022-08-27T06:49:41.015Z,106.07
2022-08-27T06:52:09.477Z,126.28
2022-08-27T06:54:37.331Z,105.75
2022-08-27T06:57:05.319Z,105.00
2022-08-27T06:59:33.760Z,94.55
2022-08-27T07:02:01.949Z,93.30
2022-08-27T07:04:32.802Z,93.22
2022-08-27T07:07:02.766Z,89.72
2022-08-27T07:09:32.852Z,80.35
2022-08-27T07:12:01.809Z,87.43
2022-08-27T07:14:35.477Z,72.90
2022-08-27T07:17:10.728Z,76.47
2022-08-27T07:19:41.132Z,73.03
2022-08-27T07:22:09.761Z,65.87
2022-08-27T07:24:38.471Z,60.63
2022-08-27T07:27:07.031Z,66.00
2022-08-27T07:29:35.831Z,68.50
2022-08-27T07:32:04.960Z,56.70
2022-08-27T07:34:33.011Z,56.60
2022-08-27T07:37:03.851Z,53.47
2022-08-27T07:39:31.794Z,56.65
2022-08-27T07:42:18.477Z,53.50
2022-08-27T07:44:46.913Z,51.67
2022-08-27T07:47:14.911Z,46.00
2022-08-27T07:49:42.875Z,42.70
2022-08-27T07:52:12.193Z,37.22
2022-08-27T07:54:41.462Z,40.67
2022-08-27T07:57:12.665Z,35.00
2022-08-27T07:59:41.017Z,35.28
2022-08-27T08:04:55.102Z,30.50
2022-08-27T08:07:23.424Z,30.85
2022-08-27T08:09:51.417Z,29.73
2022-08-27T08:12:26.397Z,27.35
2022-08-27T08:14:58.224Z,29.05
2022-08-27T08:17:26.864Z,36.08
2022-08-27T08:20:17.474Z,30.98
2022-08-27T08:22:45.584Z,31.20
2022-08-27T08:25:14.511Z,28.17
2022-08-27T08:27:43.328Z,30.15
2022-08-27T08:30:15.705Z,32.25
2022-08-27T08:32:44.397Z,33.95
2022-08-27T08:35:12.696Z,31.02
2022-08-27T08:37:44.038Z,34.75
2022-08-27T08:40:31.450Z,32.75
2022-08-27T08:43:01.049Z,28.55
2022-08-27T08:45:35.080Z,34.05
2022-08-27T08:48:04.805Z,28.77
2022-08-27T08:50:44.965Z,31.60
2022-08-27T08:53:20.496Z,22.75
2022-08-27T08:55:53.394Z,23.12
2022-08-27T08:58:39.996Z,27.73
2022-08-27T09:01:10.451Z,23.62
2022-08-27T09:03:43.007Z,24.08
2022-08-27T09:06:21.634Z,28.60
2022-08-27T09:08:50.086Z,23.45
2022-08-27T09:11:40.085Z,24.90
2022-08-27T09:14:17.143Z,24.23
2022-08-27T09:16:45.127Z,22.45
2022-08-27T09:19:14.877Z,21.12
2022-08-27T09:21:46.235Z,20.12
2022-08-27T09:24:37.696Z,18.15
2022-08-27T09:27:05.919Z,25.17
2022-08-27T09:29:34.477Z,22.17
2022-08-27T09:32:10.354Z,21.00
2022-08-27T09:34:41.351Z,16.12
2022-08-27T09:37:21.124Z,22.03
2022-08-27T09:39:57.371Z,18.73
2022-08-27T09:43:02.335Z,21.62
2022-08-27T09:45:31.673Z,15.55
2022-08-27T09:48:15.433Z,16.58
2022-08-27T09:50:48.773Z,18.40
2022-08-27T09:53:46.123Z,18.12
2022-08-27T09:56:31.642Z,16.77
2022-08-27T09:59:21.046Z,16.33
2022-08-27T10:01:54.736Z,15.18
2022-08-27T10:04:50.485Z,21.67
2022-08-27T10:07:24.678Z,13.75
2022-08-27T10:10:08.952Z,14.48
2022-08-27T10:13:00.098Z,14.65
2022-08-27T10:15:43.232Z,16.62
2022-08-27T10:18:34.676Z,14.60
2022-08-27T10:21:19.746Z,16.75
2022-08-27T10:23:47.887Z,17.48
2022-08-27T10:26:33.279Z,19.08
2022-08-27T10:32:42.517Z,17.27
2022-08-27T10:35:19.655Z,18.77
2022-08-27T10:37:48.031Z,22.73
2022-08-27T10:40:40.334Z,22.40
2022-08-27T10:43:08.648Z,23.80
2022-08-27T10:45:54.870Z,24.85
2022-08-27T10:48:40.042Z,23.90
2022-08-27T10:51:32.747Z,25.65
2022-08-27T10:54:20.806Z,25.12
2022-08-27T10:59:51.549Z,25.85
2022-08-27T11:02:36.887Z,27.75
2022-08-27T11:05:20.144Z,26.90
2022-08-27T11:07:54.168Z,25.17
2022-08-27T11:10:28.948Z,22.27
2022-08-27T11:13:04.314Z,21.67
2022-08-27T11:15:37.295Z,22.77
2022-08-27T11:18:17.905Z,23.55
2022-08-27T11:20:54.200Z,35.80
2022-08-27T11:23:46.242Z,35.05
2022-08-27T11:26:15.159Z,32.38
2022-08-27T11:28:54.474Z,33.80
2022-08-27T11:31:33.605Z,38.47
2022-08-27T11:34:31.994Z,33.50
2022-08-27T11:37:05.842Z,35.70
2022-08-27T11:39:43.620Z,37.20
2022-08-27T11:42:20.206Z,33.50
2022-08-27T11:44:54.825Z,38.40
2022-08-27T11:47:26.320Z,30.55
2022-08-27T11:49:56.614Z,31.40
2022-08-27T11:52:31.842Z,34.28
2022-08-27T11:55:21.397Z,34.67
2022-08-27T12:00:53.920Z,34.17
2022-08-27T12:03:22.412Z,34.30
2022-08-27T12:05:53.264Z,38.15
2022-08-27T12:08:24.864Z,42.53
2022-08-27T12:11:17.985Z,33.50
2022-08-27T12:14:13.492Z,36.38
2022-08-27T12:17:01.564Z,44.63
2022-08-27T12:19:32.160Z,44.35
2022-08-27T12:22:34.720Z,38.70
2022-08-27T12:25:04.841Z,42.20
2022-08-27T12:27:37.354Z,48.05
2022-08-27T12:30:28.346Z,48.60
2022-08-27T12:32:58.332Z,45.37
2022-08-27T12:35:44.540Z,35.35
2022-08-27T12:38:13.064Z,41.78
2022-08-27T12:40:51.119Z,46.22
2022-08-27T12:43:27.020Z,38.55
2022-08-27T12:46:02.564Z,41.75
2022-08-27T12:49:02.753Z,43.13
2022-08-27T12:51:48.932Z,45.92
2022-08-27T12:54:33.389Z,49.33
2022-08-27T12:57:33.806Z,52.13
2022-08-27T13:00:24.152Z,52.08
2022-08-27T13:03:20.720Z,50.70
2022-08-27T13:05:51.525Z,47.75
2022-08-27T13:08:34.923Z,53.33
2022-08-27T13:11:18.184Z,48.65
2022-08-27T13:13:46.883Z,56.28
2022-08-27T13:16:19.303Z,48.60
2022-08-27T13:18:51.605Z,54.53
2022-08-27T13:21:28.591Z,54.95
2022-08-27T13:23:59.150Z,48.00
2022-08-27T13:26:32.022Z,55.05
2022-08-27T13:29:04.881Z,52.62
2022-08-27T13:31:34.880Z,46.40
2022-08-27T13:34:06.379Z,49.03
2022-08-27T13:39:07.745Z,46.35
2022-08-27T13:41:38.976Z,48.25
2022-08-27T13:47:22.659Z,50.00
2022-08-27T13:49:51.740Z,53.53
2022-08-27T13:52:34.503Z,58.38
2022-08-27T13:55:09.828Z,57.13
2022-08-27T13:57:50.371Z,58.92
2022-08-27T14:00:27.465Z,52.62
2022-08-27T14:02:59.026Z,51.15
2022-08-27T14:05:30.489Z,53.38
2022-08-27T14:08:02.571Z,50.85
2022-08-27T14:10:41.249Z,56.85
2022-08-27T14:13:18.355Z,55.92
2022-08-27T14:15:52.391Z,52.58
2022-08-27T14:18:58.402Z,47.10
2022-08-27T14:21:24.281Z,49.15
2022-08-27T14:23:54.452Z,57.80
2022-08-27T14:26:23.094Z,51.25
2022-08-27T14:28:51.386Z,51.75
2022-08-27T14:31:21.172Z,55.97
2022-08-27T14:33:50.461Z,54.78
2022-08-27T14:36:20.707Z,54.60
2022-08-27T14:38:50.733Z,53.42
2022-08-27T14:41:21.634Z,60.15
2022-08-27T14:43:50.527Z,56.95
2022-08-27T14:46:28.241Z,62.67
2022-08-27T14:48:59.021Z,55.58
2022-08-27T14:51:32.952Z,59.03
2022-08-27T14:54:02.355Z,55.38
2022-08-27T14:56:31.609Z,63.92
2022-08-27T14:59:18.543Z,62.30
2022-08-27T15:01:47.286Z,61.40
2022-08-27T15:04:16.114Z,64.35
2022-08-27T15:06:45.255Z,70.60
2022-08-27T15:09:13.806Z,68.65
2022-08-27T15:11:42.133Z,79.97
2022-08-27T15:14:16.596Z,73.40
2022-08-27T15:16:45.102Z,87.25
2022-08-27T15:19:15.920Z,103.47
2022-08-27T15:21:47.548Z,90.40
2022-08-27T15:24:19.937Z,89.05
2022-08-27T15:26:49.194Z,85.97
2022-08-27T15:32:03.192Z,85.57
2022-08-27T15:34:31.689Z,70.15
2022-08-27T15:37:00.345Z,88.15
2022-08-27T15:39:29.803Z,84.65
2022-08-27T15:42:07.283Z,86.15
2022-08-27T15:44:37.827Z,89.07
2022-08-27T15:47:05.874Z,93.90
2022-08-27T15:49:33.882Z,93.20
2022-08-27T15:52:05.817Z,89.37
2022-08-27T15:54:34.181Z,88.22
2022-08-27T15:57:02.368Z,85.87
2022-08-27T15:59:33.520Z,90.80
2022-08-27T16:02:04.150Z,93.72
2022-08-27T16:04:35.911Z,88.65
2022-08-27T16:07:04.070Z,86.93
2022-08-27T16:09:32.541Z,80.15
2022-08-27T16:12:01.374Z,86.18
2022-08-27T16:14:29.344Z,85.35
2022-08-27T16:16:58.641Z,88.82
2022-08-27T16:19:26.915Z,86.12
2022-08-27T16:21:55.253Z,88.15
2022-08-27T16:24:23.695Z,93.22
2022-08-27T16:26:51.806Z,95.22
2022-08-27T16:29:19.737Z,96.93
2022-08-27T16:31:48.130Z,91.90
2022-08-27T16:34:21.977Z,110.12
2022-08-27T16:39:17.912Z,97.47
2022-08-27T16:41:46.217Z,99.72
2022-08-27T16:44:16.165Z,97.35
2022-08-27T16:46:44.133Z,105.12
2022-08-27T16:49:30.644Z,105.57
2022-08-27T16:52:00.440Z,98.12
2022-08-27T16:54:30.348Z,105.25
2022-08-27T16:56:59.881Z,114.03
2022-08-27T16:59:28.238Z,100.03
2022-08-27T17:01:57.438Z,107.28
2022-08-27T17:04:31.243Z,101.07
2022-08-27T17:07:03.282Z,97.53
2022-08-27T17:09:32.588Z,115.15
2022-08-27T17:12:04.763Z,100.55
2022-08-27T17:14:40.532Z,103.05
2022-08-27T17:19:38.212Z,102.70
2022-08-27T17:22:09.815Z,115.00
2022-08-27T17:24:38.197Z,106.25
2022-08-27T17:27:06.441Z,101.07
2022-08-27T17:29:34.640Z,97.68
2022-08-27T17:32:07.299Z,106.50
2022-08-27T17:34:36.383Z,104.15
2022-08-27T17:37:04.832Z,100.07
2022-08-27T17:39:32.977Z,103.47
2022-08-27T17:42:01.066Z,97.93
2022-08-27T17:44:33.730Z,112.03
2022-08-27T17:47:04.450Z,121.70
2022-08-27T17:49:33.417Z,103.07
2022-08-27T17:52:04.997Z,94.45
2022-08-27T17:54:42.711Z,106.30
2022-08-27T17:57:20.933Z,96.63
2022-08-27T17:59:50.669Z,104.72
2022-08-27T18:02:31.454Z,107.10
2022-08-27T18:05:00.404Z,103.85
2022-08-27T18:07:31.256Z,111.05
2022-08-27T18:09:59.846Z,111.75
2022-08-27T18:12:28.175Z,103.20
2022-08-27T18:15:14.675Z,116.57
2022-08-27T18:17:43.333Z,115.85
2022-08-27T18:20:14.217Z,111.53
2022-08-27T18:22:48.782Z,111.88
2022-08-27T18:25:20.243Z,107.63
2022-08-27T18:27:51.916Z,116.37
2022-08-27T18:30:20.880Z,96.50
2022-08-27T18:32:49.752Z,92.22
2022-08-27T18:35:24.039Z,101.72
2022-08-27T18:37:52.980Z,94.10
2022-08-27T18:40:23.802Z,92.70
2022-08-27T18:42:52.584Z,107.45
2022-08-27T18:45:26.973Z,95.82
2022-08-27T18:47:59.495Z,92.75
2022-08-27T18:50:28.092Z,88.12
2022-08-27T18:52:58.796Z,85.60
2022-08-27T18:55:28.534Z,85.45
2022-08-27T18:57:57.406Z,91.15
2022-08-27T19:00:27.335Z,92.03
2022-08-27T19:02:55.655Z,91.78
2022-08-27T19:05:27.123Z,92.68
2022-08-27T19:07:57.254Z,94.75
2022-08-27T19:13:12.624Z,88.78
2022-08-27T19:15:44.916Z,72.50
2022-08-27T19:18:16.233Z,91.15
2022-08-27T19:20:44.907Z,92.90
2022-08-27T19:23:13.106Z,80.62
2022-08-27T19:25:42.247Z,88.45
2022-08-27T19:28:10.823Z,86.72
2022-08-27T19:30:38.940Z,77.82
2022-08-27T19:33:07.093Z,88.80
2022-08-27T19:35:36.417Z,79.12
2022-08-27T19:38:05.055Z,71.93
2022-08-27T19:40:37.723Z,82.70
2022-08-27T19:43:05.913Z,72.90
2022-08-27T19:45:40.259Z,66.50
2022-08-27T19:48:09.294Z,72.97
2022-08-27T19:50:37.445Z,75.87
2022-08-27T19:53:05.668Z,64.57
2022-08-27T19:55:34.111Z,70.50
2022-08-27T19:58:02.284Z,76.35
2022-08-27T20:00:30.729Z,74.75
2022-08-27T20:02:59.143Z,74.55
2022-08-27T20:05:27.519Z,74.55
2022-08-27T20:07:55.628Z,63.00
2022-08-27T20:10:31.523Z,76.35
2022-08-27T20:13:06.520Z,70.53
2022-08-27T20:15:36.039Z,62.78
2022-08-27T20:18:07.511Z,71.37
2022-08-27T20:20:37.919Z,66.40
2022-08-27T20:23:07.177Z,77.43
2022-08-27T20:25:36.397Z,55.03
2022-08-27T20:28:34.973Z,60.15
2022-08-27T20:30:56.928Z,63.67
2022-08-27T20:33:27.324Z,62.90
2022-08-27T20:35:56.997Z,68.70
2022-08-27T20:38:25.641Z,62.92
2022-08-27T20:40:53.450Z,50.25
2022-08-27T20:43:21.289Z,57.65
2022-08-27T20:45:49.868Z,64.53
2022-08-27T20:48:17.896Z,57.05
2022-08-27T20:50:45.940Z,50.00
2022-08-27T20:53:14.480Z,57.58
2022-08-27T20:55:42.351Z,51.95
2022-08-27T20:58:29.014Z,55.88
2022-08-27T21:00:58.015Z,55.33
2022-08-27T21:03:26.213Z,62.90
2022-08-27T21:05:56.236Z,51.85
2022-08-27T21:08:24.541Z,51.58
2022-08-27T21:10:58.283Z,50.20
2022-08-27T21:13:28.609Z,51.25
2022-08-27T21:15:56.766Z,48.85
2022-08-27T21:18:29.666Z,55.05
2022-08-27T21:21:02.763Z,46.78
2022-08-27T21:23:31.170Z,55.90
2022-08-27T21:26:04.979Z,50.78
2022-08-27T21:28:32.975Z,56.25
2022-08-27T21:31:01.308Z,52.00
2022-08-27T21:33:29.290Z,53.28
2022-08-27T21:35:57.343Z,60.65
2022-08-27T21:38:26.382Z,61.88
2022-08-27T21:40:54.477Z,61.78
2022-08-27T21:43:22.569Z,59.63
2022-08-27T21:45:55.232Z,65.30
2022-08-27T21:48:23.616Z,59.97
2022-08-27T21:50:53.629Z,54.63
2022-08-27T21:53:22.748Z,71.57
2022-08-27T21:55:54.232Z,66.68
2022-08-27T21:58:26.240Z,73.18
2022-08-27T22:00:55.966Z,64.35
2022-08-27T22:03:25.573Z,69.95
2022-08-27T22:05:53.742Z,74.30
2022-08-27T22:08:23.016Z,74.25
2022-08-27T22:10:55.927Z,81.68
2022-08-27T22:13:24.264Z,91.72
2022-08-27T22:15:52.522Z,83.70
2022-08-27T22:18:20.534Z,95.22
2022-08-27T22:20:53.686Z,92.53
2022-08-27T22:23:22.538Z,106.00
2022-08-27T22:25:50.804Z,102.15
2022-08-27T22:28:19.581Z,87.90
2022-08-27T22:30:47.461Z,99.43
2022-08-27T22:33:16.161Z,110.55
2022-08-27T22:35:44.426Z,107.03
2022-08-27T22:38:12.542Z,104.65
2022-08-27T22:40:40.803Z,105.00
2022-08-27T22:43:09.653Z,100.57
2022-08-27T22:45:37.560Z,95.62
2022-08-27T22:48:05.457Z,102.75
2022-08-27T22:50:33.710Z,95.03
2022-08-27T22:53:01.605Z,95.60
2022-08-27T22:55:29.780Z,90.05
2022-08-27T22:57:58.000Z,87.78
2022-08-27T23:00:29.410Z,92.30
2022-08-27T23:02:58.229Z,88.62
2022-08-27T23:05:26.935Z,87.88
2022-08-27T23:07:55.471Z,89.15
2022-08-27T23:10:24.688Z,90.75
2022-08-27T23:12:54.388Z,83.18
2022-08-27T23:15:25.905Z,90.43
2022-08-27T23:17:55.806Z,75.72
2022-08-27T23:20:28.793Z,74.05
2022-08-27T23:22:57.605Z,76.30
2022-08-27T23:25:45.031Z,63.78
2022-08-27T23:28:14.986Z,73.18
2022-08-27T23:30:44.524Z,77.55
2022-08-27T23:35:59.526Z,78.87
2022-08-27T23:38:29.913Z,73.53
2022-08-27T23:40:59.147Z,69.93
2022-08-27T23:43:28.867Z,61.03
2022-08-27T23:46:00.909Z,70.37
2022-08-27T23:48:29.075Z,59.50
2022-08-27T23:50:57.088Z,75.72
2022-08-27T23:53:24.920Z,69.28
2022-08-27T23:55:53.139Z,65.18
2022-08-27T23:58:21.024Z,63.15
